sensor_id;sensor_type;location;lat;lon;timestamp;P1;durP1;ratioP1;P2;durP2;ratioP2
11655;SDS011;5884;43.618;1.438;2023-04-24T04:47:02;9.53;;;2.87;;
11655;SDS011;5884;43.618;1.438;2023-04-24T04:49:30;5.87;;;2.20;;
11655;SDS011;5884;43.618;1.438;2023-04-24T04:51:57;9.60;;;2.90;;
11655;SDS011;5884;43.618;1.438;2023-04-24T04:54:25;7.93;;;2.67;;
11655;SDS011;5884;43.618;1.438;2023-04-24T04:56:52;8.37;;;2.47;;
11655;SDS011;5884;43.618;1.438;2023-04-24T04:59:19;12.57;;;3.03;;
11655;SDS011;5884;43.618;1.438;2023-04-24T05:01:47;7.77;;;2.90;;
11655;SDS011;5884;43.618;1.438;2023-04-24T05:04:16;8.07;;;2.43;;
11655;SDS011;5884;43.618;1.438;2023-04-24T05:06:43;6.53;;;2.30;;
11655;SDS011;5884;43.618;1.438;2023-04-24T05:09:12;6.93;;;2.33;;
11655;SDS011;5884;43.618;1.438;2023-04-24T05:11:39;9.87;;;2.90;;
11655;SDS011;5884;43.618;1.438;2023-04-24T05:14:06;9.33;;;2.40;;
11655;SDS011;5884;43.618;1.438;2023-04-24T05:16:33;7.97;;;2.57;;
11655;SDS011;5884;43.618;1.438;2023-04-24T05:19:02;7.60;;;2.63;;
11655;SDS011;5884;43.618;1.438;2023-04-24T05:21:30;10.33;;;2.87;;
11655;SDS011;5884;43.618;1.438;2023-04-24T05:23:57;13.53;;;3.00;;
11655;SDS011;5884;43.618;1.438;2023-04-24T05:26:25;11.37;;;2.80;;
11655;SDS011;5884;43.618;1.438;2023-04-24T05:28:52;13.27;;;2.80;;
11655;SDS011;5884;43.618;1.438;2023-04-24T05:31:19;10.13;;;2.73;;
11655;SDS011;5884;43.618;1.438;2023-04-24T05:33:46;9.10;;;2.97;;
11655;SDS011;5884;43.618;1.438;2023-04-24T05:36:13;14.43;;;3.07;;
11655;SDS011;5884;43.618;1.438;2023-04-24T05:38:42;7.00;;;2.60;;
11655;SDS011;5884;43.618;1.438;2023-04-24T05:41:09;13.17;;;2.90;;
11655;SDS011;5884;43.618;1.438;2023-04-24T05:43:36;12.30;;;2.67;;
11655;SDS011;5884;43.618;1.438;2023-04-24T05:46:04;10.40;;;3.13;;
11655;SDS011;5884;43.618;1.438;2023-04-24T05:48:31;15.37;;;3.23;;
11655;SDS011;5884;43.618;1.438;2023-04-24T05:50:58;9.83;;;2.60;;
11655;SDS011;5884;43.618;1.438;2023-04-24T05:53:25;6.97;;;2.97;;
11655;SDS011;5884;43.618;1.438;2023-04-24T05:55:54;7.47;;;2.60;;
11655;SDS011;5884;43.618;1.438;2023-04-24T05:58:21;8.53;;;2.60;;
11655;SDS011;5884;43.618;1.438;2023-04-24T06:00:48;10.80;;;2.57;;
11655;SDS011;5884;43.618;1.438;2023-04-24T06:03:16;8.73;;;2.70;;
11655;SDS011;5884;43.618;1.438;2023-04-24T06:05:43;10.37;;;2.43;;
11655;SDS011;5884;43.618;1.438;2023-04-24T06:08:10;8.27;;;2.43;;
11655;SDS011;5884;43.618;1.438;2023-04-24T06:10:38;6.17;;;2.20;;
11655;SDS011;5884;43.618;1.438;2023-04-24T06:13:06;15.50;;;3.43;;
11655;SDS011;5884;43.618;1.438;2023-04-24T06:15:34;10.47;;;2.70;;
11655;SDS011;5884;43.618;1.438;2023-04-24T06:18:01;10.93;;;2.57;;
11655;SDS011;5884;43.618;1.438;2023-04-24T06:20:28;6.90;;;2.53;;
11655;SDS011;5884;43.618;1.438;2023-04-24T06:22:55;12.50;;;2.90;;
11655;SDS011;5884;43.618;1.438;2023-04-24T06:25:24;10.07;;;2.53;;
11655;SDS011;5884;43.618;1.438;2023-04-24T06:27:52;7.37;;;2.80;;
11655;SDS011;5884;43.618;1.438;2023-04-24T06:30:21;9.33;;;2.70;;
11655;SDS011;5884;43.618;1.438;2023-04-24T06:32:49;11.10;;;2.57;;
11655;SDS011;5884;43.618;1.438;2023-04-24T06:35:16;13.43;;;3.17;;
11655;SDS011;5884;43.618;1.438;2023-04-24T06:37:43;11.50;;;2.67;;
11655;SDS011;5884;43.618;1.438;2023-04-24T06:40:10;12.83;;;3.10;;
11655;SDS011;5884;43.618;1.438;2023-04-24T06:42:38;11.07;;;3.40;;
11655;SDS011;5884;43.618;1.438;2023-04-24T06:45:05;8.97;;;3.10;;
11655;SDS011;5884;43.618;1.438;2023-04-24T06:47:35;9.03;;;2.67;;
11655;SDS011;5884;43.618;1.438;2023-04-24T06:50:03;12.27;;;3.03;;
11655;SDS011;5884;43.618;1.438;2023-04-24T06:52:31;9.60;;;2.97;;
11655;SDS011;5884;43.618;1.438;2023-04-24T06:54:59;13.07;;;3.10;;
11655;SDS011;5884;43.618;1.438;2023-04-24T06:57:27;12.33;;;3.00;;
11655;SDS011;5884;43.618;1.438;2023-04-24T06:59:55;7.73;;;2.60;;
11655;SDS011;5884;43.618;1.438;2023-04-24T07:02:22;11.03;;;2.97;;
11655;SDS011;5884;43.618;1.438;2023-04-24T07:04:50;7.90;;;2.80;;
11655;SDS011;5884;43.618;1.438;2023-04-24T07:07:18;11.20;;;3.10;;
11655;SDS011;5884;43.618;1.438;2023-04-24T07:09:46;11.67;;;2.70;;
11655;SDS011;5884;43.618;1.438;2023-04-24T07:12:13;11.10;;;3.10;;
11655;SDS011;5884;43.618;1.438;2023-04-24T07:14:42;11.37;;;2.83;;
11655;SDS011;5884;43.618;1.438;2023-04-24T07:17:09;13.27;;;2.73;;
11655;SDS011;5884;43.618;1.438;2023-04-24T07:19:38;7.67;;;2.40;;
11655;SDS011;5884;43.618;1.438;2023-04-24T07:22:07;9.17;;;2.90;;
11655;SDS011;5884;43.618;1.438;2023-04-24T07:24:36;10.60;;;2.43;;
11655;SDS011;5884;43.618;1.438;2023-04-24T07:27:04;9.63;;;2.60;;
11655;SDS011;5884;43.618;1.438;2023-04-24T07:29:31;9.40;;;2.43;;
11655;SDS011;5884;43.618;1.438;2023-04-24T07:31:58;8.43;;;2.93;;
11655;SDS011;5884;43.618;1.438;2023-04-24T07:34:25;6.00;;;2.47;;
11655;SDS011;5884;43.618;1.438;2023-04-24T07:36:52;11.47;;;2.90;;
11655;SDS011;5884;43.618;1.438;2023-04-24T07:39:22;7.60;;;2.80;;
11655;SDS011;5884;43.618;1.438;2023-04-24T07:41:49;7.70;;;2.80;;
11655;SDS011;5884;43.618;1.438;2023-04-24T07:44:16;8.20;;;2.30;;
11655;SDS011;5884;43.618;1.438;2023-04-24T07:46:44;7.33;;;1.83;;
11655;SDS011;5884;43.618;1.438;2023-04-24T07:49:11;6.63;;;2.10;;
11655;SDS011;5884;43.618;1.438;2023-04-24T07:51:39;6.13;;;1.90;;
11655;SDS011;5884;43.618;1.438;2023-04-24T07:54:06;7.03;;;2.00;;
11655;SDS011;5884;43.618;1.438;2023-04-24T07:56:35;7.00;;;1.93;;
11655;SDS011;5884;43.618;1.438;2023-04-24T07:59:03;5.60;;;1.73;;
11655;SDS011;5884;43.618;1.438;2023-04-24T08:01:31;6.00;;;1.80;;
11655;SDS011;5884;43.618;1.438;2023-04-24T08:04:00;9.50;;;1.90;;
11655;SDS011;5884;43.618;1.438;2023-04-24T08:06:27;5.93;;;1.37;;
11655;SDS011;5884;43.618;1.438;2023-04-24T08:08:55;5.50;;;1.80;;
11655;SDS011;5884;43.618;1.438;2023-04-24T08:11:23;2.33;;;1.23;;
11655;SDS011;5884;43.618;1.438;2023-04-24T08:13:52;10.53;;;1.40;;
11655;SDS011;5884;43.618;1.438;2023-04-24T08:16:19;7.97;;;1.40;;
11655;SDS011;5884;43.618;1.438;2023-04-24T08:18:48;4.87;;;1.90;;
11655;SDS011;5884;43.618;1.438;2023-04-24T08:21:16;5.57;;;1.53;;
11655;SDS011;5884;43.618;1.438;2023-04-24T08:23:43;8.00;;;1.67;;
11655;SDS011;5884;43.618;1.438;2023-04-24T08:26:11;5.53;;;1.90;;
11655;SDS011;5884;43.618;1.438;2023-04-24T08:28:39;2.77;;;1.20;;
11655;SDS011;5884;43.618;1.438;2023-04-24T08:31:07;5.97;;;1.53;;
11655;SDS011;5884;43.618;1.438;2023-04-24T08:33:35;5.83;;;1.23;;
11655;SDS011;5884;43.618;1.438;2023-04-24T08:36:02;6.37;;;1.57;;
11655;SDS011;5884;43.618;1.438;2023-04-24T08:38:31;6.20;;;1.30;;
11655;SDS011;5884;43.618;1.438;2023-04-24T08:40:59;5.10;;;1.40;;
11655;SDS011;5884;43.618;1.438;2023-04-24T08:43:27;7.83;;;1.43;;
11655;SDS011;5884;43.618;1.438;2023-04-24T08:45:55;5.73;;;1.40;;
11655;SDS011;5884;43.618;1.438;2023-04-24T08:48:25;4.67;;;1.60;;
11655;SDS011;5884;43.618;1.438;2023-04-24T08:50:54;5.57;;;1.40;;
11655;SDS011;5884;43.618;1.438;2023-04-24T08:53:22;2.80;;;1.20;;
11655;SDS011;5884;43.618;1.438;2023-04-24T08:55:51;5.93;;;1.27;;
11655;SDS011;5884;43.618;1.438;2023-04-24T08:58:22;6.27;;;1.70;;
11655;SDS011;5884;43.618;1.438;2023-04-24T09:00:51;8.10;;;1.50;;
11655;SDS011;5884;43.618;1.438;2023-04-24T09:03:20;4.83;;;1.50;;
11655;SDS011;5884;43.618;1.438;2023-04-24T09:05:50;4.77;;;1.40;;
11655;SDS011;5884;43.618;1.438;2023-04-24T09:08:19;3.97;;;1.57;;
11655;SDS011;5884;43.618;1.438;2023-04-24T09:10:50;4.50;;;1.50;;
11655;SDS011;5884;43.618;1.438;2023-04-24T09:13:18;3.90;;;1.40;;
11655;SDS011;5884;43.618;1.438;2023-04-24T09:15:46;3.00;;;1.23;;
11655;SDS011;5884;43.618;1.438;2023-04-24T09:18:13;6.27;;;1.47;;
11655;SDS011;5884;43.618;1.438;2023-04-24T09:21:01;4.47;;;1.20;;
11655;SDS011;5884;43.618;1.438;2023-04-24T09:23:31;6.53;;;1.40;;
11655;SDS011;5884;43.618;1.438;2023-04-24T09:25:59;6.17;;;1.73;;
11655;SDS011;5884;43.618;1.438;2023-04-24T09:28:31;4.10;;;1.23;;
11655;SDS011;5884;43.618;1.438;2023-04-24T09:31:04;3.43;;;1.03;;
11655;SDS011;5884;43.618;1.438;2023-04-24T09:33:33;2.87;;;0.90;;
11655;SDS011;5884;43.618;1.438;2023-04-24T09:36:02;4.70;;;1.33;;
11655;SDS011;5884;43.618;1.438;2023-04-24T09:38:31;4.97;;;1.60;;
11655;SDS011;5884;43.618;1.438;2023-04-24T09:41:04;4.33;;;1.23;;
11655;SDS011;5884;43.618;1.438;2023-04-24T09:43:34;3.73;;;1.30;;
11655;SDS011;5884;43.618;1.438;2023-04-24T09:46:04;3.03;;;0.90;;
11655;SDS011;5884;43.618;1.438;2023-04-24T09:48:35;5.07;;;1.93;;
11655;SDS011;5884;43.618;1.438;2023-04-24T09:51:05;3.60;;;1.40;;
11655;SDS011;5884;43.618;1.438;2023-04-24T09:53:35;5.20;;;1.70;;
11655;SDS011;5884;43.618;1.438;2023-04-24T09:56:06;6.93;;;1.73;;
11655;SDS011;5884;43.618;1.438;2023-04-24T09:58:37;2.60;;;1.17;;
11655;SDS011;5884;43.618;1.438;2023-04-24T10:01:05;3.10;;;1.07;;
11655;SDS011;5884;43.618;1.438;2023-04-24T10:03:32;5.50;;;1.53;;
11655;SDS011;5884;43.618;1.438;2023-04-24T10:06:01;4.17;;;1.60;;
11655;SDS011;5884;43.618;1.438;2023-04-24T10:08:34;4.30;;;1.40;;
11655;SDS011;5884;43.618;1.438;2023-04-24T10:11:02;9.23;;;2.03;;
11655;SDS011;5884;43.618;1.438;2023-04-24T10:13:30;6.27;;;1.60;;
11655;SDS011;5884;43.618;1.438;2023-04-24T10:15:58;5.83;;;1.30;;
11655;SDS011;5884;43.618;1.438;2023-04-24T10:18:27;3.73;;;1.20;;
11655;SDS011;5884;43.618;1.438;2023-04-24T10:20:57;4.67;;;1.23;;
11655;SDS011;5884;43.618;1.438;2023-04-24T10:23:29;7.20;;;1.60;;
11655;SDS011;5884;43.618;1.438;2023-04-24T10:25:57;4.70;;;1.47;;
11655;SDS011;5884;43.618;1.438;2023-04-24T10:28:26;3.93;;;1.37;;
11655;SDS011;5884;43.618;1.438;2023-04-24T10:30:55;6.67;;;1.87;;
11655;SDS011;5884;43.618;1.438;2023-04-24T10:33:24;3.13;;;1.00;;
11655;SDS011;5884;43.618;1.438;2023-04-24T10:35:52;4.07;;;1.37;;
11655;SDS011;5884;43.618;1.438;2023-04-24T10:38:21;5.67;;;1.47;;
11655;SDS011;5884;43.618;1.438;2023-04-24T10:40:55;2.90;;;1.20;;
11655;SDS011;5884;43.618;1.438;2023-04-24T10:43:34;3.97;;;1.67;;
11655;SDS011;5884;43.618;1.438;2023-04-24T10:46:01;5.70;;;1.40;;
11655;SDS011;5884;43.618;1.438;2023-04-24T10:48:30;5.43;;;1.30;;
11655;SDS011;5884;43.618;1.438;2023-04-24T10:50:58;5.07;;;1.43;;
11655;SDS011;5884;43.618;1.438;2023-04-24T10:53:27;3.63;;;2.03;;
11655;SDS011;5884;43.618;1.438;2023-04-24T10:56:02;7.33;;;1.63;;
11655;SDS011;5884;43.618;1.438;2023-04-24T10:58:38;5.03;;;1.30;;
11655;SDS011;5884;43.618;1.438;2023-04-24T11:01:11;4.77;;;1.50;;
11655;SDS011;5884;43.618;1.438;2023-04-24T11:03:53;2.63;;;1.30;;
11655;SDS011;5884;43.618;1.438;2023-04-24T11:06:28;4.10;;;1.27;;
11655;SDS011;5884;43.618;1.438;2023-04-24T11:09:01;4.53;;;1.83;;
11655;SDS011;5884;43.618;1.438;2023-04-24T11:11:32;2.87;;;1.30;;
11655;SDS011;5884;43.618;1.438;2023-04-24T11:14:05;3.67;;;1.53;;
11655;SDS011;5884;43.618;1.438;2023-04-24T11:16:36;4.73;;;1.40;;
11655;SDS011;5884;43.618;1.438;2023-04-24T11:19:17;4.20;;;1.27;;
11655;SDS011;5884;43.618;1.438;2023-04-24T11:21:54;5.40;;;1.53;;
11655;SDS011;5884;43.618;1.438;2023-04-24T11:24:25;5.50;;;1.50;;
11655;SDS011;5884;43.618;1.438;2023-04-24T11:26:57;4.60;;;1.30;;
11655;SDS011;5884;43.618;1.438;2023-04-24T11:29:37;5.37;;;1.23;;
11655;SDS011;5884;43.618;1.438;2023-04-24T11:32:17;6.43;;;1.70;;
11655;SDS011;5884;43.618;1.438;2023-04-24T11:34:53;4.33;;;1.30;;
11655;SDS011;5884;43.618;1.438;2023-04-24T11:37:22;5.37;;;1.27;;
11655;SDS011;5884;43.618;1.438;2023-04-24T11:39:51;4.73;;;1.30;;
11655;SDS011;5884;43.618;1.438;2023-04-24T11:42:21;5.00;;;1.67;;
11655;SDS011;5884;43.618;1.438;2023-04-24T11:44:49;5.67;;;1.30;;
11655;SDS011;5884;43.618;1.438;2023-04-24T11:47:18;4.50;;;1.40;;
11655;SDS011;5884;43.618;1.438;2023-04-24T11:49:45;3.17;;;1.07;;
11655;SDS011;5884;43.618;1.438;2023-04-24T11:52:15;4.80;;;1.30;;
11655;SDS011;5884;43.618;1.438;2023-04-24T11:54:46;3.33;;;1.00;;
11655;SDS011;5884;43.618;1.438;2023-04-24T11:57:16;3.37;;;1.10;;
11655;SDS011;5884;43.618;1.438;2023-04-24T11:59:47;3.17;;;1.10;;
11655;SDS011;5884;43.618;1.438;2023-04-24T12:02:21;7.90;;;1.63;;
11655;SDS011;5884;43.618;1.438;2023-04-24T12:04:49;6.40;;;1.50;;
11655;SDS011;5884;43.618;1.438;2023-04-24T12:07:17;5.10;;;1.57;;
11655;SDS011;5884;43.618;1.438;2023-04-24T12:09:45;4.47;;;1.20;;
11655;SDS011;5884;43.618;1.438;2023-04-24T12:12:15;5.37;;;1.27;;
11655;SDS011;5884;43.618;1.438;2023-04-24T12:14:46;4.33;;;1.10;;
11655;SDS011;5884;43.618;1.438;2023-04-24T12:17:15;3.37;;;1.07;;
11655;SDS011;5884;43.618;1.438;2023-04-24T12:19:45;4.97;;;1.87;;
11655;SDS011;5884;43.618;1.438;2023-04-24T12:22:14;4.33;;;1.73;;
11655;SDS011;5884;43.618;1.438;2023-04-24T12:27:29;5.47;;;1.47;;
11655;SDS011;5884;43.618;1.438;2023-04-24T12:30:02;5.57;;;1.50;;
11655;SDS011;5884;43.618;1.438;2023-04-24T12:32:32;5.63;;;2.10;;
11655;SDS011;5884;43.618;1.438;2023-04-24T12:34:59;4.87;;;1.50;;
11655;SDS011;5884;43.618;1.438;2023-04-24T12:37:32;3.27;;;1.13;;
11655;SDS011;5884;43.618;1.438;2023-04-24T12:40:02;4.60;;;1.30;;
11655;SDS011;5884;43.618;1.438;2023-04-24T12:42:33;4.27;;;1.10;;
11655;SDS011;5884;43.618;1.438;2023-04-24T12:45:03;2.67;;;1.17;;
11655;SDS011;5884;43.618;1.438;2023-04-24T12:47:33;3.23;;;1.10;;
11655;SDS011;5884;43.618;1.438;2023-04-24T12:50:01;3.43;;;0.87;;
11655;SDS011;5884;43.618;1.438;2023-04-24T12:52:29;3.60;;;1.10;;
11655;SDS011;5884;43.618;1.438;2023-04-24T12:54:57;1.60;;;0.80;;
11655;SDS011;5884;43.618;1.438;2023-04-24T12:57:27;3.37;;;1.13;;
11655;SDS011;5884;43.618;1.438;2023-04-24T12:59:56;9.67;;;1.30;;
11655;SDS011;5884;43.618;1.438;2023-04-24T13:02:27;3.77;;;1.20;;
11655;SDS011;5884;43.618;1.438;2023-04-24T13:04:56;6.60;;;1.37;;
11655;SDS011;5884;43.618;1.438;2023-04-24T13:07:24;2.60;;;0.90;;
11655;SDS011;5884;43.618;1.438;2023-04-24T13:09:51;4.60;;;1.13;;
11655;SDS011;5884;43.618;1.438;2023-04-24T13:12:19;5.40;;;1.40;;
11655;SDS011;5884;43.618;1.438;2023-04-24T13:14:48;2.67;;;1.13;;
11655;SDS011;5884;43.618;1.438;2023-04-24T13:17:16;5.70;;;1.07;;
11655;SDS011;5884;43.618;1.438;2023-04-24T13:19:44;4.13;;;1.10;;
11655;SDS011;5884;43.618;1.438;2023-04-24T13:22:12;4.57;;;1.30;;
11655;SDS011;5884;43.618;1.438;2023-04-24T13:24:39;4.20;;;1.10;;
11655;SDS011;5884;43.618;1.438;2023-04-24T13:27:07;2.13;;;0.90;;
11655;SDS011;5884;43.618;1.438;2023-04-24T13:29:34;4.00;;;1.33;;
11655;SDS011;5884;43.618;1.438;2023-04-24T13:32:02;3.97;;;1.40;;
11655;SDS011;5884;43.618;1.438;2023-04-24T13:34:29;4.00;;;1.33;;
11655;SDS011;5884;43.618;1.438;2023-04-24T13:36:58;7.60;;;1.53;;
11655;SDS011;5884;43.618;1.438;2023-04-24T13:39:25;5.83;;;1.40;;
11655;SDS011;5884;43.618;1.438;2023-04-24T13:41:53;5.27;;;1.20;;
11655;SDS011;5884;43.618;1.438;2023-04-24T13:44:22;4.53;;;1.33;;
11655;SDS011;5884;43.618;1.438;2023-04-24T13:46:49;4.17;;;1.20;;
11655;SDS011;5884;43.618;1.438;2023-04-24T13:49:22;7.97;;;1.10;;
11655;SDS011;5884;43.618;1.438;2023-04-24T13:51:50;3.27;;;0.90;;
11655;SDS011;5884;43.618;1.438;2023-04-24T13:54:20;2.90;;;1.00;;
11655;SDS011;5884;43.618;1.438;2023-04-24T13:56:48;3.80;;;1.07;;
11655;SDS011;5884;43.618;1.438;2023-04-24T13:59:15;4.63;;;1.40;;
11655;SDS011;5884;43.618;1.438;2023-04-24T14:01:43;3.03;;;1.10;;
11655;SDS011;5884;43.618;1.438;2023-04-24T14:04:10;4.17;;;1.10;;
11655;SDS011;5884;43.618;1.438;2023-04-24T14:06:38;3.50;;;1.10;;
11655;SDS011;5884;43.618;1.438;2023-04-24T14:09:05;4.43;;;1.50;;
11655;SDS011;5884;43.618;1.438;2023-04-24T14:11:34;3.77;;;1.07;;
11655;SDS011;5884;43.618;1.438;2023-04-24T14:14:02;6.00;;;1.90;;
11655;SDS011;5884;43.618;1.438;2023-04-24T14:16:29;4.17;;;1.20;;
11655;SDS011;5884;43.618;1.438;2023-04-24T14:18:57;4.23;;;1.30;;
11655;SDS011;5884;43.618;1.438;2023-04-24T14:21:24;5.53;;;1.30;;
11655;SDS011;5884;43.618;1.438;2023-04-24T14:23:51;4.63;;;1.60;;
11655;SDS011;5884;43.618;1.438;2023-04-24T14:26:19;4.60;;;1.30;;
11655;SDS011;5884;43.618;1.438;2023-04-24T14:28:48;3.80;;;1.50;;
11655;SDS011;5884;43.618;1.438;2023-04-24T14:31:15;3.20;;;1.23;;
11655;SDS011;5884;43.618;1.438;2023-04-24T14:33:42;2.43;;;1.13;;
11655;SDS011;5884;43.618;1.438;2023-04-24T14:36:10;2.40;;;0.90;;
11655;SDS011;5884;43.618;1.438;2023-04-24T14:38:38;3.60;;;1.03;;
11655;SDS011;5884;43.618;1.438;2023-04-24T14:41:05;3.43;;;1.10;;
11655;SDS011;5884;43.618;1.438;2023-04-24T14:43:34;5.83;;;1.30;;
11655;SDS011;5884;43.618;1.438;2023-04-24T14:46:05;2.33;;;1.10;;
11655;SDS011;5884;43.618;1.438;2023-04-24T14:48:32;4.50;;;1.20;;
11655;SDS011;5884;43.618;1.438;2023-04-24T14:51:00;4.73;;;1.20;;
11655;SDS011;5884;43.618;1.438;2023-04-24T14:53:27;4.90;;;1.30;;
11655;SDS011;5884;43.618;1.438;2023-04-24T14:55:55;4.80;;;1.10;;
11655;SDS011;5884;43.618;1.438;2023-04-24T14:58:22;3.57;;;1.27;;
11655;SDS011;5884;43.618;1.438;2023-04-24T15:00:49;3.93;;;1.20;;
11655;SDS011;5884;43.618;1.438;2023-04-24T15:03:20;3.83;;;1.03;;
11655;SDS011;5884;43.618;1.438;2023-04-24T15:05:48;2.93;;;1.10;;
11655;SDS011;5884;43.618;1.438;2023-04-24T15:08:16;3.00;;;1.30;;
11655;SDS011;5884;43.618;1.438;2023-04-24T15:10:43;3.83;;;1.37;;
11655;SDS011;5884;43.618;1.438;2023-04-24T15:13:11;2.33;;;1.00;;
11655;SDS011;5884;43.618;1.438;2023-04-24T15:15:38;2.83;;;1.20;;
11655;SDS011;5884;43.618;1.438;2023-04-24T15:18:05;5.07;;;1.37;;
11655;SDS011;5884;43.618;1.438;2023-04-24T15:20:37;4.57;;;1.53;;
11655;SDS011;5884;43.618;1.438;2023-04-24T15:23:07;3.70;;;1.20;;
11655;SDS011;5884;43.618;1.438;2023-04-24T15:25:34;7.37;;;1.60;;
11655;SDS011;5884;43.618;1.438;2023-04-24T15:28:02;3.87;;;1.30;;
11655;SDS011;5884;43.618;1.438;2023-04-24T15:30:29;2.83;;;1.30;;
11655;SDS011;5884;43.618;1.438;2023-04-24T15:32:57;4.47;;;1.50;;
11655;SDS011;5884;43.618;1.438;2023-04-24T15:35:25;4.67;;;1.90;;
11655;SDS011;5884;43.618;1.438;2023-04-24T15:37:54;4.50;;;1.80;;
11655;SDS011;5884;43.618;1.438;2023-04-24T15:40:21;7.27;;;1.73;;
11655;SDS011;5884;43.618;1.438;2023-04-24T15:42:48;2.53;;;1.20;;
11655;SDS011;5884;43.618;1.438;2023-04-24T15:45:16;4.63;;;1.50;;
11655;SDS011;5884;43.618;1.438;2023-04-24T15:47:44;6.10;;;1.70;;
11655;SDS011;5884;43.618;1.438;2023-04-24T15:50:12;3.97;;;1.40;;
11655;SDS011;5884;43.618;1.438;2023-04-24T15:52:40;6.00;;;1.50;;
11655;SDS011;5884;43.618;1.438;2023-04-24T15:55:10;5.23;;;1.60;;
11655;SDS011;5884;43.618;1.438;2023-04-24T15:57:38;3.70;;;1.70;;
11655;SDS011;5884;43.618;1.438;2023-04-24T16:00:05;4.53;;;1.47;;
11655;SDS011;5884;43.618;1.438;2023-04-24T16:02:34;4.17;;;1.50;;
11655;SDS011;5884;43.618;1.438;2023-04-24T16:05:02;6.97;;;1.50;;
11655;SDS011;5884;43.618;1.438;2023-04-24T16:07:31;5.50;;;1.60;;
11655;SDS011;5884;43.618;1.438;2023-04-24T16:09:59;3.60;;;1.27;;
11655;SDS011;5884;43.618;1.438;2023-04-24T16:12:28;5.57;;;1.60;;
11655;SDS011;5884;43.618;1.438;2023-04-24T16:14:55;5.63;;;1.50;;
11655;SDS011;5884;43.618;1.438;2023-04-24T16:17:23;4.70;;;1.67;;
11655;SDS011;5884;43.618;1.438;2023-04-24T16:19:50;3.23;;;1.40;;
11655;SDS011;5884;43.618;1.438;2023-04-24T16:22:17;3.63;;;1.37;;
11655;SDS011;5884;43.618;1.438;2023-04-24T16:24:44;5.60;;;2.70;;
11655;SDS011;5884;43.618;1.438;2023-04-24T16:27:12;3.23;;;1.60;;
11655;SDS011;5884;43.618;1.438;2023-04-24T16:29:41;5.47;;;1.63;;
11655;SDS011;5884;43.618;1.438;2023-04-24T16:32:09;7.07;;;1.70;;
11655;SDS011;5884;43.618;1.438;2023-04-24T16:34:36;5.37;;;1.97;;
11655;SDS011;5884;43.618;1.438;2023-04-24T16:37:03;3.53;;;1.37;;
11655;SDS011;5884;43.618;1.438;2023-04-24T16:39:31;5.33;;;2.30;;
11655;SDS011;5884;43.618;1.438;2023-04-24T16:41:58;4.90;;;1.70;;
11655;SDS011;5884;43.618;1.438;2023-04-24T16:44:25;7.77;;;3.37;;
11655;SDS011;5884;43.618;1.438;2023-04-24T16:46:54;7.33;;;2.50;;
11655;SDS011;5884;43.618;1.438;2023-04-24T16:49:21;5.43;;;2.27;;
11655;SDS011;5884;43.618;1.438;2023-04-24T16:51:49;6.50;;;4.37;;
11655;SDS011;5884;43.618;1.438;2023-04-24T16:54:16;5.23;;;2.20;;
11655;SDS011;5884;43.618;1.438;2023-04-24T16:56:43;3.57;;;1.97;;
11655;SDS011;5884;43.618;1.438;2023-04-24T16:59:10;4.60;;;1.63;;
11655;SDS011;5884;43.618;1.438;2023-04-24T17:01:38;5.13;;;1.70;;
11655;SDS011;5884;43.618;1.438;2023-04-24T17:04:06;3.00;;;1.30;;
11655;SDS011;5884;43.618;1.438;2023-04-24T17:06:33;4.27;;;1.80;;
11655;SDS011;5884;43.618;1.438;2023-04-24T17:09:01;2.97;;;1.40;;
11655;SDS011;5884;43.618;1.438;2023-04-24T17:11:29;5.37;;;1.90;;
11655;SDS011;5884;43.618;1.438;2023-04-24T17:13:56;5.20;;;2.17;;
11655;SDS011;5884;43.618;1.438;2023-04-24T17:16:24;4.90;;;1.77;;
11655;SDS011;5884;43.618;1.438;2023-04-24T17:18:51;4.47;;;1.83;;
11655;SDS011;5884;43.618;1.438;2023-04-24T17:21:20;8.27;;;2.00;;
11655;SDS011;5884;43.618;1.438;2023-04-24T17:23:48;6.53;;;2.10;;
11655;SDS011;5884;43.618;1.438;2023-04-24T17:26:15;5.70;;;1.77;;
11655;SDS011;5884;43.618;1.438;2023-04-24T17:28:42;6.73;;;2.13;;
11655;SDS011;5884;43.618;1.438;2023-04-24T17:31:09;6.97;;;2.10;;
11655;SDS011;5884;43.618;1.438;2023-04-24T17:33:36;4.10;;;2.60;;
11655;SDS011;5884;43.618;1.438;2023-04-24T17:36:04;10.57;;;2.40;;
11655;SDS011;5884;43.618;1.438;2023-04-24T17:38:33;5.23;;;2.07;;
11655;SDS011;5884;43.618;1.438;2023-04-24T17:41:01;4.80;;;1.77;;
11655;SDS011;5884;43.618;1.438;2023-04-24T17:43:28;4.63;;;1.80;;
11655;SDS011;5884;43.618;1.438;2023-04-24T17:45:55;4.33;;;2.00;;
11655;SDS011;5884;43.618;1.438;2023-04-24T17:48:23;4.97;;;1.80;;
11655;SDS011;5884;43.618;1.438;2023-04-24T17:50:51;4.30;;;1.73;;
11655;SDS011;5884;43.618;1.438;2023-04-24T17:53:19;4.90;;;1.70;;
11655;SDS011;5884;43.618;1.438;2023-04-24T17:55:48;6.03;;;2.33;;
11655;SDS011;5884;43.618;1.438;2023-04-24T17:58:15;5.30;;;1.90;;
11655;SDS011;5884;43.618;1.438;2023-04-24T18:00:43;3.67;;;1.63;;
11655;SDS011;5884;43.618;1.438;2023-04-24T18:03:10;4.20;;;1.90;;
11655;SDS011;5884;43.618;1.438;2023-04-24T18:05:37;6.83;;;1.80;;
11655;SDS011;5884;43.618;1.438;2023-04-24T18:08:05;2.93;;;1.70;;
11655;SDS011;5884;43.618;1.438;2023-04-24T18:10:33;4.50;;;1.73;;
11655;SDS011;5884;43.618;1.438;2023-04-24T18:13:03;4.57;;;2.10;;
11655;SDS011;5884;43.618;1.438;2023-04-24T18:15:30;2.60;;;1.60;;
11655;SDS011;5884;43.618;1.438;2023-04-24T18:17:59;5.20;;;1.73;;
11655;SDS011;5884;43.618;1.438;2023-04-24T18:20:26;2.97;;;1.30;;
11655;SDS011;5884;43.618;1.438;2023-04-24T18:22:54;6.33;;;1.80;;
11655;SDS011;5884;43.618;1.438;2023-04-24T18:25:21;2.70;;;1.50;;
11655;SDS011;5884;43.618;1.438;2023-04-24T18:27:50;3.20;;;1.70;;
11655;SDS011;5884;43.618;1.438;2023-04-24T18:30:20;3.67;;;1.90;;
11655;SDS011;5884;43.618;1.438;2023-04-24T18:32:48;5.57;;;1.90;;
11655;SDS011;5884;43.618;1.438;2023-04-24T18:35:17;5.37;;;1.80;;
11655;SDS011;5884;43.618;1.438;2023-04-24T18:37:44;4.27;;;1.73;;
11655;SDS011;5884;43.618;1.438;2023-04-24T18:40:12;5.77;;;1.80;;
11655;SDS011;5884;43.618;1.438;2023-04-24T18:42:39;5.00;;;1.43;;
11655;SDS011;5884;43.618;1.438;2023-04-24T18:45:07;3.90;;;1.40;;
11655;SDS011;5884;43.618;1.438;2023-04-24T18:47:37;3.40;;;1.53;;
11655;SDS011;5884;43.618;1.438;2023-04-24T18:50:05;6.27;;;1.70;;
11655;SDS011;5884;43.618;1.438;2023-04-24T18:52:34;4.73;;;1.73;;
11655;SDS011;5884;43.618;1.438;2023-04-24T18:55:02;3.33;;;1.70;;
11655;SDS011;5884;43.618;1.438;2023-04-24T18:57:30;4.70;;;1.60;;
11655;SDS011;5884;43.618;1.438;2023-04-24T18:59:58;5.40;;;1.70;;
11655;SDS011;5884;43.618;1.438;2023-04-24T19:02:25;5.47;;;2.10;;
11655;SDS011;5884;43.618;1.438;2023-04-24T19:04:54;4.07;;;1.80;;
11655;SDS011;5884;43.618;1.438;2023-04-24T19:07:21;4.57;;;1.93;;
11655;SDS011;5884;43.618;1.438;2023-04-24T19:09:48;4.47;;;1.90;;
11655;SDS011;5884;43.618;1.438;2023-04-24T19:12:16;4.73;;;1.87;;
11655;SDS011;5884;43.618;1.438;2023-04-24T19:14:44;5.43;;;1.80;;
11655;SDS011;5884;43.618;1.438;2023-04-24T19:17:11;4.80;;;2.20;;
11655;SDS011;5884;43.618;1.438;2023-04-24T19:19:42;5.13;;;1.70;;
11655;SDS011;5884;43.618;1.438;2023-04-24T19:22:11;5.40;;;2.03;;
11655;SDS011;5884;43.618;1.438;2023-04-24T19:24:38;3.53;;;1.87;;
11655;SDS011;5884;43.618;1.438;2023-04-24T19:27:06;5.43;;;1.90;;
11655;SDS011;5884;43.618;1.438;2023-04-24T19:29:33;5.10;;;1.90;;
11655;SDS011;5884;43.618;1.438;2023-04-24T19:32:00;7.70;;;2.47;;
11655;SDS011;5884;43.618;1.438;2023-04-24T19:34:27;5.60;;;2.10;;
11655;SDS011;5884;43.618;1.438;2023-04-24T19:36:56;6.27;;;2.33;;
11655;SDS011;5884;43.618;1.438;2023-04-24T19:39:24;5.93;;;1.90;;
11655;SDS011;5884;43.618;1.438;2023-04-24T19:41:51;3.30;;;1.90;;
11655;SDS011;5884;43.618;1.438;2023-04-24T19:44:20;4.87;;;1.70;;
11655;SDS011;5884;43.618;1.438;2023-04-24T19:46:49;3.23;;;1.60;;
11655;SDS011;5884;43.618;1.438;2023-04-24T19:49:16;3.57;;;1.63;;
11655;SDS011;5884;43.618;1.438;2023-04-24T19:51:44;8.50;;;2.33;;
11655;SDS011;5884;43.618;1.438;2023-04-24T19:54:11;6.77;;;1.83;;
11655;SDS011;5884;43.618;1.438;2023-04-24T19:56:40;6.93;;;2.17;;